RGE weather

Rancho Grande Airport
Carbo, Sonora, Mexico

Public forecast

Using degrees Celsius for public forecast. Weather courtesy of forecast.io.

Closest aviation weather report (METAR) to Rancho Grande Airport

Closest report is General Ignacio P. Garcia International Airport, 45.0 nm (83.3 km) SSE. Retrieved 2020/06/03 15:40 UTC (59 minutes ago):

MMHO 031540Z 23003KT 10SM SKC 33/20 A2991 RMK HZY

Closest aviation forecast (TAF) to Rancho Grande Airport

Forecast is more than 6 hours old.

Closest forecast is General Ignacio P. Garcia International Airport, 45.0 nm (83.3 km) SSE. Retrieved 2020/06/03 06:30 UTC (10 hours ago):

TAF MMHO 030422Z 0306/0406 24005KT P6SM SKC FM031800 20012KT P6SM SKC FM040400 24005KT P6SM SKC